createdAt,value
2017-08-12T00:00:16.069Z,27.07
2017-08-12T00:02:49.080Z,21.10
2017-08-12T00:05:20.157Z,21.60
2017-08-12T00:07:51.653Z,21.23
2017-08-12T00:10:23.023Z,23.77
2017-08-12T00:12:54.611Z,19.03
2017-08-12T00:15:25.783Z,22.13
2017-08-12T00:17:56.886Z,24.10
2017-08-12T00:20:28.520Z,26.30
2017-08-12T00:22:59.539Z,25.40
2017-08-12T00:25:30.594Z,24.70
2017-08-12T00:30:38.484Z,25.70
2017-08-12T00:33:09.910Z,24.20
2017-08-12T00:35:42.282Z,26.03
2017-08-12T00:38:14.141Z,29.17
2017-08-12T00:40:46.615Z,24.03
2017-08-12T00:43:17.699Z,23.43
2017-08-12T00:45:49.507Z,27.80
2017-08-12T00:48:20.848Z,28.77
2017-08-12T00:50:52.189Z,26.93
2017-08-12T00:53:23.614Z,31.87
2017-08-12T00:55:54.755Z,23.73
2017-08-12T00:58:25.867Z,31.00
2017-08-12T01:00:59.175Z,26.23
2017-08-12T01:03:30.218Z,32.77
2017-08-12T01:06:04.413Z,32.07
2017-08-12T01:08:35.507Z,30.07
2017-08-12T01:11:06.926Z,27.97
2017-08-12T01:13:38.050Z,27.67
2017-08-12T01:16:10.258Z,22.30
2017-08-12T01:18:41.970Z,24.83
2017-08-12T01:21:13.107Z,22.60
2017-08-12T01:23:45.392Z,34.30
2017-08-12T01:26:16.957Z,22.70
2017-08-12T01:28:48.053Z,23.60
2017-08-12T01:31:19.233Z,19.33
2017-08-12T01:33:50.800Z,20.23
2017-08-12T01:36:21.927Z,22.20
2017-08-12T01:38:53.237Z,21.53
2017-08-12T01:41:24.620Z,18.53
2017-08-12T01:43:55.681Z,26.10
2017-08-12T01:46:27.145Z,25.50
2017-08-12T01:48:58.235Z,25.40
2017-08-12T01:51:29.327Z,23.80
2017-08-12T01:54:00.759Z,23.20
2017-08-12T01:59:01.376Z,24.17
2017-08-12T02:01:32.632Z,20.93
2017-08-12T02:04:04.770Z,18.03
2017-08-12T02:06:35.834Z,17.67
2017-08-12T02:09:07.242Z,18.77
2017-08-12T02:11:38.432Z,18.17
2017-08-12T02:14:09.462Z,21.37
2017-08-12T02:16:41.947Z,23.97
2017-08-12T02:19:13.066Z,27.00
2017-08-12T02:21:45.103Z,25.17
2017-08-12T02:24:16.572Z,22.17
2017-08-12T02:26:47.678Z,23.07
2017-08-12T02:29:19.822Z,23.50
2017-08-12T02:31:50.937Z,21.30
2017-08-12T02:34:22.072Z,21.43
2017-08-12T02:36:53.563Z,22.00
2017-08-12T02:39:24.684Z,21.73
2017-08-12T02:41:55.767Z,25.73
2017-08-12T02:44:27.263Z,23.87
2017-08-12T02:46:58.292Z,27.63
2017-08-12T02:49:29.624Z,27.20
2017-08-12T02:52:00.689Z,29.40
2017-08-12T02:54:31.772Z,25.47
2017-08-12T02:57:03.072Z,27.10
2017-08-12T02:59:34.487Z,24.63
2017-08-12T03:02:06.937Z,25.93
2017-08-12T03:04:37.979Z,26.93
2017-08-12T03:07:09.023Z,22.00
2017-08-12T03:09:40.688Z,24.83
2017-08-12T03:12:11.742Z,25.00
2017-08-12T03:14:44.162Z,22.63
2017-08-12T03:17:15.200Z,25.83
2017-08-12T03:19:47.424Z,26.83
2017-08-12T03:22:18.832Z,20.47
2017-08-12T03:24:50.880Z,21.27
2017-08-12T03:27:21.947Z,23.03
2017-08-12T03:29:54.448Z,26.33
2017-08-12T03:32:25.532Z,33.03
2017-08-12T03:34:56.668Z,28.60
2017-08-12T03:37:28.131Z,28.80
2017-08-12T03:39:59.223Z,29.20
2017-08-12T03:42:30.277Z,32.83
2017-08-12T03:45:02.308Z,30.37
2017-08-12T03:47:33.335Z,31.77
2017-08-12T03:50:05.510Z,31.80
2017-08-12T03:52:36.573Z,29.30
2017-08-12T03:55:07.641Z,28.53
2017-08-12T03:57:38.688Z,32.57
2017-08-12T04:00:10.090Z,30.50
2017-08-12T04:02:42.029Z,36.53
2017-08-12T04:05:13.127Z,33.80
2017-08-12T04:07:45.099Z,34.90
2017-08-12T04:10:16.695Z,34.27
2017-08-12T04:12:48.105Z,37.53
2017-08-12T04:15:19.459Z,33.53
2017-08-12T04:17:50.528Z,35.33
2017-08-12T04:20:21.596Z,38.63
2017-08-12T04:22:52.905Z,34.07
2017-08-12T04:25:24.121Z,34.90
2017-08-12T04:27:55.170Z,31.47
2017-08-12T04:30:26.888Z,28.00
2017-08-12T04:32:57.918Z,23.50
2017-08-12T04:35:29.235Z,28.00
2017-08-12T04:38:00.283Z,27.53
2017-08-12T04:40:31.321Z,17.23
2017-08-12T04:43:02.711Z,18.33
2017-08-12T04:45:33.804Z,19.83
2017-08-12T04:48:05.971Z,18.93
2017-08-12T04:50:37.063Z,21.40
2017-08-12T04:53:08.099Z,18.73
2017-08-12T04:55:39.795Z,21.63
2017-08-12T04:58:10.840Z,23.20
2017-08-12T05:00:43.812Z,25.03
2017-08-12T05:03:14.998Z,20.20
2017-08-12T05:05:46.212Z,31.23
2017-08-12T05:08:17.684Z,24.60
2017-08-12T05:10:48.741Z,23.60
2017-08-12T05:13:19.768Z,25.13
2017-08-12T05:15:51.175Z,26.03
2017-08-12T05:18:22.762Z,20.90
2017-08-12T05:20:54.105Z,18.60
2017-08-12T05:23:25.212Z,19.67
2017-08-12T05:25:56.431Z,23.30
2017-08-12T05:28:27.579Z,19.77
2017-08-12T05:30:58.939Z,22.43
2017-08-12T05:33:30.504Z,29.23
2017-08-12T05:36:03.513Z,29.07
2017-08-12T05:38:34.564Z,28.40
2017-08-12T05:41:06.107Z,33.53
2017-08-12T05:43:37.182Z,25.67
2017-08-12T05:46:08.616Z,24.40
2017-08-12T05:48:40.380Z,20.23
2017-08-12T05:51:11.549Z,17.50
2017-08-12T05:53:44.023Z,15.70
2017-08-12T05:56:15.536Z,15.53
2017-08-12T05:58:47.484Z,15.80
2017-08-12T06:01:19.226Z,13.90
2017-08-12T06:03:50.307Z,13.97
2017-08-12T06:06:21.356Z,13.63
2017-08-12T06:08:52.864Z,16.20
2017-08-12T06:11:24.006Z,17.20
2017-08-12T06:13:55.085Z,15.00
2017-08-12T06:16:26.460Z,16.17
2017-08-12T06:18:57.515Z,18.60
2017-08-12T06:21:28.568Z,19.27
2017-08-12T06:24:00.042Z,22.40
2017-08-12T06:26:31.264Z,14.53
2017-08-12T06:29:02.628Z,16.17
2017-08-12T06:31:34.442Z,13.47
2017-08-12T06:34:05.562Z,14.00
2017-08-12T06:38:59.311Z,12.10
2017-08-12T06:41:30.638Z,10.47
2017-08-12T06:44:03.552Z,13.27
2017-08-12T06:46:34.730Z,9.30
2017-08-12T06:49:05.874Z,10.73
2017-08-12T06:51:37.401Z,9.67
2017-08-12T06:54:08.666Z,9.27
2017-08-12T06:56:39.936Z,8.17
2017-08-12T06:59:10.977Z,10.13
2017-08-12T07:01:42.266Z,8.03
2017-08-12T07:04:14.403Z,8.10
2017-08-12T07:10:03.152Z,7.23
2017-08-12T07:12:34.331Z,6.50
2017-08-12T07:15:06.134Z,6.70
2017-08-12T07:17:37.229Z,6.33
2017-08-12T07:20:08.443Z,6.47
2017-08-12T07:22:41.285Z,6.43
2017-08-12T07:25:12.515Z,5.87
2017-08-12T07:27:46.029Z,5.53
2017-08-12T07:30:17.558Z,6.40
2017-08-12T07:32:48.708Z,8.83
2017-08-12T07:35:20.092Z,6.80
2017-08-12T07:37:51.545Z,7.77
2017-08-12T07:40:22.796Z,5.47
2017-08-12T07:42:53.876Z,6.10
2017-08-12T07:45:25.500Z,7.67
2017-08-12T07:47:56.718Z,9.70
2017-08-12T07:50:28.043Z,6.60
2017-08-12T07:52:59.097Z,7.20
2017-08-12T07:55:30.158Z,11.30
2017-08-12T07:58:03.048Z,11.60
2017-08-12T08:00:34.417Z,9.13
2017-08-12T08:03:05.747Z,8.67
2017-08-12T08:05:37.487Z,7.10
2017-08-12T08:08:08.577Z,14.23
2017-08-12T08:10:42.322Z,8.50
2017-08-12T08:13:13.397Z,5.83
2017-08-12T08:15:46.034Z,5.93
2017-08-12T08:18:19.648Z,5.40
2017-08-12T08:20:50.825Z,8.00
2017-08-12T08:23:23.160Z,8.50
2017-08-12T08:25:54.340Z,9.70
2017-08-12T08:28:25.370Z,4.93
2017-08-12T08:30:56.760Z,5.73
2017-08-12T08:33:27.780Z,5.33
2017-08-12T08:35:59.111Z,6.10
2017-08-12T08:38:30.138Z,5.77
2017-08-12T08:41:01.605Z,3.83
2017-08-12T08:43:32.936Z,6.20
2017-08-12T08:46:05.147Z,2.70
2017-08-12T08:48:36.482Z,6.50
2017-08-12T08:51:07.519Z,4.30
2017-08-12T08:53:38.598Z,2.43
2017-08-12T08:56:10.112Z,8.43
2017-08-12T08:58:42.572Z,14.37
2017-08-12T09:01:13.730Z,13.67
2017-08-12T09:03:46.545Z,4.10
2017-08-12T09:06:17.886Z,4.67
2017-08-12T09:08:49.098Z,3.70
2017-08-12T09:11:20.235Z,3.07
2017-08-12T09:13:51.286Z,8.47
2017-08-12T09:16:23.047Z,5.70
2017-08-12T09:18:54.094Z,8.27
2017-08-12T09:21:25.123Z,3.20
2017-08-12T09:23:56.164Z,4.20
2017-08-12T09:26:27.980Z,7.53
2017-08-12T09:28:59.458Z,7.80
2017-08-12T09:31:30.492Z,7.07
2017-08-12T09:34:02.557Z,7.17
2017-08-12T09:36:34.225Z,4.60
2017-08-12T09:39:05.994Z,6.73
2017-08-12T09:41:37.087Z,7.33
2017-08-12T09:44:08.485Z,3.83
2017-08-12T09:46:39.880Z,3.80
2017-08-12T09:49:11.219Z,6.50
2017-08-12T09:51:43.675Z,7.47
2017-08-12T09:54:14.777Z,6.07
2017-08-12T09:56:47.074Z,4.90
2017-08-12T09:59:18.132Z,7.00
2017-08-12T10:01:49.641Z,4.70
2017-08-12T10:04:20.713Z,5.80
2017-08-12T10:06:52.078Z,5.23
2017-08-12T10:09:23.788Z,6.87
2017-08-12T10:11:54.826Z,7.23
2017-08-12T10:14:25.873Z,4.23
2017-08-12T10:16:57.211Z,4.10
2017-08-12T10:19:28.250Z,3.73
2017-08-12T10:21:59.418Z,6.67
2017-08-12T10:24:30.757Z,3.57
2017-08-12T10:27:02.096Z,9.87
2017-08-12T10:29:33.131Z,3.40
2017-08-12T10:32:06.901Z,3.13
2017-08-12T10:34:37.968Z,5.07
2017-08-12T10:37:09.314Z,2.97
2017-08-12T10:39:41.180Z,11.10
2017-08-12T10:42:12.656Z,3.50
2017-08-12T10:44:46.587Z,8.30
2017-08-12T10:47:18.149Z,15.23
2017-08-12T10:49:49.235Z,5.93
2017-08-12T10:52:20.296Z,12.90
2017-08-12T10:54:51.659Z,3.97
2017-08-12T10:57:22.686Z,8.23
2017-08-12T10:59:54.106Z,3.90
2017-08-12T11:02:25.233Z,4.87
2017-08-12T11:04:56.497Z,3.00
2017-08-12T11:07:28.156Z,6.57
2017-08-12T11:09:59.210Z,7.90
2017-08-12T11:12:30.268Z,3.50
2017-08-12T11:15:02.072Z,4.17
2017-08-12T11:17:33.138Z,3.60
2017-08-12T11:20:05.528Z,6.03
2017-08-12T11:22:36.830Z,5.00
2017-08-12T11:25:11.702Z,3.43
2017-08-12T11:27:43.642Z,2.83
2017-08-12T11:30:15.395Z,2.40
2017-08-12T11:32:47.268Z,7.63
2017-08-12T11:35:18.304Z,3.27
2017-08-12T11:37:49.679Z,4.60
2017-08-12T11:40:21.008Z,3.87
2017-08-12T11:42:52.061Z,4.57
2017-08-12T11:45:23.122Z,5.63
2017-08-12T11:47:54.568Z,3.90
2017-08-12T11:50:25.733Z,8.73
2017-08-12T11:52:56.784Z,9.23
2017-08-12T11:55:28.116Z,6.00
2017-08-12T11:57:59.243Z,4.27
2017-08-12T12:00:30.435Z,4.90
2017-08-12T12:03:01.975Z,10.33
2017-08-12T12:05:33.017Z,5.80
2017-08-12T12:08:05.352Z,3.83
2017-08-12T12:10:36.419Z,4.70
2017-08-12T12:13:07.504Z,4.27
2017-08-12T12:15:38.828Z,4.93
2017-08-12T12:18:09.960Z,4.07
2017-08-12T12:20:41.075Z,4.20
2017-08-12T12:23:12.495Z,3.73
2017-08-12T12:25:45.101Z,3.83
2017-08-12T12:28:16.450Z,3.20
2017-08-12T12:30:48.242Z,2.40
2017-08-12T12:33:19.329Z,2.00
2017-08-12T12:35:50.683Z,4.43
2017-08-12T12:38:22.053Z,7.23
2017-08-12T12:40:53.145Z,2.47
2017-08-12T12:43:24.498Z,3.13
2017-08-12T12:45:55.647Z,5.00
2017-08-12T12:48:27.022Z,4.57
2017-08-12T12:50:58.244Z,2.80
2017-08-12T12:53:29.823Z,2.47
2017-08-12T12:56:02.118Z,3.43
2017-08-12T12:58:33.614Z,3.63
2017-08-12T13:01:05.259Z,2.40
2017-08-12T13:03:36.670Z,2.97
2017-08-12T13:06:08.529Z,3.43
2017-08-12T13:08:40.656Z,3.90
2017-08-12T13:11:11.742Z,3.47
2017-08-12T13:13:44.546Z,4.57
2017-08-12T13:16:16.419Z,7.43
2017-08-12T13:18:47.974Z,7.93
2017-08-12T13:21:19.256Z,4.77
2017-08-12T13:23:50.446Z,5.50
2017-08-12T13:26:21.494Z,3.10
2017-08-12T13:28:52.856Z,3.00
2017-08-12T13:31:23.923Z,3.47
2017-08-12T13:33:55.001Z,4.00
2017-08-12T13:36:27.466Z,4.87
2017-08-12T13:41:24.023Z,4.20
2017-08-12T13:43:55.567Z,6.50
2017-08-12T13:46:28.392Z,3.83
2017-08-12T13:49:00.006Z,3.23
2017-08-12T13:51:32.500Z,3.40
2017-08-12T13:54:04.530Z,3.77
2017-08-12T13:56:36.277Z,3.33
2017-08-12T13:59:07.753Z,7.33
2017-08-12T14:01:39.049Z,3.07
2017-08-12T14:04:10.676Z,2.77
2017-08-12T14:06:45.495Z,4.47
2017-08-12T14:09:16.955Z,6.27
2017-08-12T14:11:49.352Z,3.50
2017-08-12T14:14:21.119Z,2.93
2017-08-12T14:16:52.602Z,3.50
2017-08-12T14:19:23.696Z,3.97
2017-08-12T14:21:55.335Z,3.30
2017-08-12T14:24:26.684Z,4.20
2017-08-12T14:27:00.409Z,3.47
2017-08-12T14:29:35.082Z,7.57
2017-08-12T14:32:06.916Z,7.47
2017-08-12T14:34:38.481Z,3.30
2017-08-12T14:37:09.805Z,4.47
2017-08-12T14:39:41.917Z,4.40
2017-08-12T14:42:13.576Z,3.60
2017-08-12T14:44:46.246Z,2.40
2017-08-12T14:47:17.765Z,2.67
2017-08-12T14:49:49.144Z,2.30
2017-08-12T14:52:23.559Z,2.53
2017-08-12T14:54:54.697Z,2.30
2017-08-12T14:57:25.699Z,2.07
2017-08-12T14:59:57.045Z,2.23
2017-08-12T15:02:28.293Z,2.50
2017-08-12T15:04:59.764Z,2.20
2017-08-12T15:07:30.900Z,2.97
2017-08-12T15:10:03.145Z,2.67
2017-08-12T15:12:35.136Z,4.60
2017-08-12T15:15:06.238Z,3.63
2017-08-12T15:17:37.319Z,5.43
2017-08-12T15:20:08.634Z,3.33
2017-08-12T15:22:39.705Z,4.20
2017-08-12T15:25:10.852Z,5.53
2017-08-12T15:27:42.323Z,4.00
2017-08-12T15:30:13.552Z,8.13
2017-08-12T15:32:46.957Z,4.60
2017-08-12T15:35:18.496Z,2.83
2017-08-12T15:37:50.293Z,3.30
2017-08-12T15:40:21.652Z,2.97
2017-08-12T15:42:53.289Z,3.63
2017-08-12T15:45:24.369Z,4.80
2017-08-12T15:47:55.780Z,4.57
2017-08-12T15:50:26.934Z,3.20
2017-08-12T15:52:58.034Z,3.87
2017-08-12T15:55:29.368Z,2.90
2017-08-12T15:58:00.500Z,3.73
2017-08-12T16:00:31.593Z,2.63
2017-08-12T16:03:03.487Z,2.87
2017-08-12T16:05:34.549Z,5.87
2017-08-12T16:08:06.710Z,2.80
2017-08-12T16:10:37.780Z,3.53
2017-08-12T16:13:09.136Z,2.50
2017-08-12T16:15:40.538Z,3.17
2017-08-12T16:18:11.668Z,5.73
2017-08-12T16:20:43.166Z,8.80
2017-08-12T16:23:14.559Z,5.10
2017-08-12T16:25:47.334Z,4.53
2017-08-12T16:28:18.447Z,9.73
2017-08-12T16:30:50.817Z,3.50
2017-08-12T16:33:21.997Z,4.63
2017-08-12T16:35:53.112Z,4.40
2017-08-12T16:38:24.587Z,3.40
2017-08-12T16:40:55.705Z,4.00
2017-08-12T16:43:27.149Z,4.33
2017-08-12T16:45:58.529Z,3.53
2017-08-12T16:48:29.922Z,7.33
2017-08-12T16:51:01.516Z,4.13
2017-08-12T16:53:32.879Z,3.80
2017-08-12T16:56:06.087Z,6.83
2017-08-12T16:58:37.431Z,4.37
2017-08-12T17:01:08.509Z,4.00
2017-08-12T17:03:39.557Z,4.83
2017-08-12T17:06:10.899Z,59.27
2017-08-12T17:08:42.069Z,5.53
2017-08-12T17:11:13.713Z,3.70
2017-08-12T17:13:47.086Z,3.70
2017-08-12T17:16:18.325Z,8.80
2017-08-12T17:18:52.063Z,2.93
2017-08-12T17:21:23.142Z,3.80
2017-08-12T17:23:54.477Z,3.97
2017-08-12T17:26:25.555Z,4.40
2017-08-12T17:28:56.756Z,4.73
2017-08-12T17:31:28.135Z,5.80
2017-08-12T17:33:59.311Z,5.10
2017-08-12T17:36:30.467Z,6.97
2017-08-12T17:39:01.912Z,8.23
2017-08-12T17:41:34.167Z,5.23
2017-08-12T17:44:06.300Z,5.60
2017-08-12T17:46:37.667Z,4.20
2017-08-12T17:49:09.744Z,5.60
2017-08-12T17:51:41.114Z,4.80
2017-08-12T17:54:12.378Z,4.83
2017-08-12T17:56:46.700Z,9.97
2017-08-12T17:59:18.145Z,5.30
2017-08-12T18:01:49.323Z,6.80
2017-08-12T18:04:20.355Z,4.93
2017-08-12T18:06:51.399Z,6.20
2017-08-12T18:09:22.568Z,4.67
2017-08-12T18:11:54.090Z,5.60
2017-08-12T18:14:25.919Z,6.10
2017-08-12T18:16:57.138Z,5.47
2017-08-12T18:19:28.607Z,7.80
2017-08-12T18:21:59.921Z,8.10
2017-08-12T18:24:31.021Z,4.60
2017-08-12T18:27:02.595Z,4.80
2017-08-12T18:29:33.993Z,8.90
2017-08-12T18:32:07.122Z,6.70
2017-08-12T18:34:38.202Z,12.30
2017-08-12T18:37:09.284Z,11.20
2017-08-12T18:39:40.906Z,5.00
2017-08-12T18:42:12.372Z,5.53
2017-08-12T18:44:46.922Z,9.40
2017-08-12T18:47:18.370Z,6.10
2017-08-12T18:49:49.935Z,5.27
2017-08-12T18:52:22.072Z,6.67
2017-08-12T18:54:53.695Z,5.63
2017-08-12T18:57:25.539Z,5.30
2017-08-12T18:59:57.051Z,7.93
2017-08-12T19:02:28.110Z,4.80
2017-08-12T19:04:59.189Z,5.93
2017-08-12T19:07:30.570Z,6.23
2017-08-12T19:10:03.705Z,4.80
2017-08-12T19:12:35.063Z,4.90
2017-08-12T19:15:06.604Z,5.37
2017-08-12T19:17:38.312Z,6.30
2017-08-12T19:20:09.780Z,9.17
2017-08-12T19:22:41.174Z,6.07
2017-08-12T19:25:12.372Z,6.20
2017-08-12T19:27:44.046Z,4.87
2017-08-12T19:30:15.460Z,4.43
2017-08-12T19:32:49.540Z,7.30
2017-08-12T19:35:20.728Z,3.97
2017-08-12T19:37:51.858Z,4.57
2017-08-12T19:40:23.409Z,4.83
2017-08-12T19:42:54.861Z,5.53
2017-08-12T19:45:26.312Z,4.60
2017-08-12T19:47:57.670Z,6.10
2017-08-12T19:50:34.671Z,5.33
2017-08-12T19:53:06.078Z,6.13
2017-08-12T19:58:17.642Z,4.63
2017-08-12T20:00:50.795Z,8.10
2017-08-12T20:03:22.127Z,7.40
2017-08-12T20:05:53.432Z,8.80
2017-08-12T20:08:25.747Z,5.43
2017-08-12T20:10:57.203Z,6.10
2017-08-12T20:13:28.413Z,5.93
2017-08-12T20:17:29.444Z,6.70
2017-08-12T20:20:00.595Z,5.00
2017-08-12T20:22:32.175Z,5.33
2017-08-12T20:25:05.563Z,5.20
2017-08-12T20:27:37.515Z,7.17
2017-08-12T20:30:08.936Z,4.83
2017-08-12T20:32:40.040Z,6.70
2017-08-12T20:35:11.491Z,4.90
2017-08-12T20:37:44.283Z,5.43
2017-08-12T20:40:15.753Z,8.50
2017-08-12T20:42:49.727Z,6.00
2017-08-12T20:45:20.931Z,6.13
2017-08-12T20:47:52.629Z,5.73
2017-08-12T20:50:23.777Z,11.20
2017-08-12T20:52:55.352Z,5.80
2017-08-12T20:55:28.642Z,8.70
2017-08-12T20:57:59.714Z,5.53
2017-08-12T21:00:31.485Z,8.83
2017-08-12T21:03:03.272Z,7.90
2017-08-12T21:05:36.865Z,5.57
2017-08-12T21:08:08.370Z,5.97
2017-08-12T21:10:39.525Z,7.33
2017-08-12T21:13:11.625Z,12.93
2017-08-12T21:15:42.696Z,5.10
2017-08-12T21:18:14.034Z,10.60
2017-08-12T21:20:46.992Z,5.80
2017-08-12T21:23:22.791Z,8.93
2017-08-12T21:25:54.119Z,6.50
2017-08-12T21:28:25.175Z,5.93
2017-08-12T21:30:56.591Z,7.40
2017-08-12T21:33:27.630Z,10.10
2017-08-12T21:35:59.256Z,5.87
2017-08-12T21:38:30.300Z,6.20
2017-08-12T21:41:01.601Z,7.83
2017-08-12T21:43:33.175Z,11.07
2017-08-12T21:46:06.271Z,5.83
2017-08-12T21:48:37.744Z,7.87
2017-08-12T21:51:10.116Z,8.50
2017-08-12T21:56:21.788Z,6.63
2017-08-12T21:58:53.274Z,10.00
2017-08-12T22:01:24.690Z,9.43
2017-08-12T22:03:56.277Z,8.80
2017-08-12T22:06:27.401Z,6.63
2017-08-12T22:08:58.506Z,6.40
2017-08-12T22:11:30.155Z,11.53
2017-08-12T22:14:02.811Z,12.80
2017-08-12T22:16:33.861Z,8.70
2017-08-12T22:19:05.768Z,10.90
2017-08-12T22:21:37.028Z,15.33
2017-08-12T22:24:08.092Z,11.90
2017-08-12T22:26:39.598Z,8.63
2017-08-12T22:29:10.984Z,8.40
2017-08-12T22:31:42.534Z,9.97
2017-08-12T22:34:13.873Z,9.43
2017-08-12T22:36:46.258Z,8.30
2017-08-12T22:39:17.421Z,11.40
2017-08-12T22:41:49.209Z,9.80
2017-08-12T22:44:20.743Z,10.40
2017-08-12T22:46:52.008Z,9.37
2017-08-12T22:49:23.653Z,11.13
2017-08-12T22:51:55.316Z,8.77
2017-08-12T22:54:26.661Z,8.63
2017-08-12T22:56:57.986Z,7.33
2017-08-12T22:59:29.524Z,9.53
2017-08-12T23:02:00.818Z,6.40
2017-08-12T23:04:31.991Z,8.53
2017-08-12T23:07:05.503Z,9.20
2017-08-12T23:09:36.658Z,26.83
2017-08-12T23:12:08.012Z,7.43
2017-08-12T23:14:39.150Z,8.50
2017-08-12T23:17:10.136Z,9.37
2017-08-12T23:19:41.791Z,12.60
2017-08-12T23:22:12.872Z,14.27
2017-08-12T23:24:43.938Z,11.43
2017-08-12T23:27:15.412Z,9.50
2017-08-12T23:29:48.102Z,6.70
2017-08-12T23:32:19.426Z,9.70
2017-08-12T23:34:50.894Z,9.23
2017-08-12T23:37:21.943Z,7.43
2017-08-12T23:39:53.487Z,7.53
2017-08-12T23:42:25.309Z,7.00
2017-08-12T23:44:56.394Z,7.00
2017-08-12T23:47:27.774Z,6.97
2017-08-12T23:49:59.156Z,10.07
2017-08-12T23:52:30.527Z,8.83
2017-08-12T23:55:01.882Z,16.00
2017-08-12T23:57:32.964Z,6.93
